Terminal Aerodrome Forecast
Issued by NWS Duluth, MN

Home | Current Version | Previous Version | Text Only | Print | Product List | Glossary On
Versions: 1 2 3 4 5 6 7 8 9 10 11 12 13 14 15 16 17 18 19 20
730
FTUS43 KDLH 201745
TAFDLH
TAF
KDLH 201745Z 2018/2118 11009KT 2SM -RA BR OVC003
     FM202200 12008KT 1 1/2SM -RASN BR OVC003
     FM210100 08006KT 1SM -SNRA BR OVC004
     FM211400 09005KT 2SM -SNRA BR OVC005=

USA.gov is the U.S. government's official web portal to all federal, state and local government web resources and services.